Terminal Aerodrome Forecast
Issued by NWS

Current Version | Previous Version | Text Only | Print | Product List | Glossary Off
Versions: 1 2 3 4 5 6 7 8 9 10 11 12 13 14 15 16 17

258
FTUS41 KPBZ 052344
TAFHLG
TAF
KHLG 052344Z 0600/0624 26004KT P6SM SCT200
     FM060600 20003KT P6SM BKN040
     FM061500 24010KT P6SM SCT035 SCT070=

USA.gov is the U.S. government's official web portal to all federal, state and local government web resources and services.